createdAt,value
2023-08-10T00:01:48.010Z,100.00
2023-08-10T00:04:15.908Z,100.00
2023-08-10T00:06:44.069Z,100.00
2023-08-10T00:09:13.630Z,100.00
2023-08-10T00:11:41.594Z,100.00
2023-08-10T00:14:10.068Z,100.00
2023-08-10T00:16:38.561Z,100.00
2023-08-10T00:19:07.092Z,100.00
2023-08-10T00:21:35.421Z,100.00
2023-08-10T00:24:04.223Z,100.00
2023-08-10T00:26:33.945Z,100.00
2023-08-10T00:29:04.938Z,100.00
2023-08-10T00:31:32.827Z,100.00
2023-08-10T00:34:01.103Z,100.00
2023-08-10T00:36:29.146Z,100.00
2023-08-10T00:38:58.060Z,100.00
2023-08-10T00:41:26.328Z,100.00
2023-08-10T00:43:56.280Z,100.00
2023-08-10T00:46:24.201Z,100.00
2023-08-10T00:48:52.173Z,100.00
2023-08-10T00:51:21.389Z,100.00
2023-08-10T00:53:50.291Z,100.00
2023-08-10T00:56:18.959Z,100.00
2023-08-10T00:58:47.152Z,100.00
2023-08-10T01:01:17.088Z,100.00
2023-08-10T01:03:46.242Z,100.00
2023-08-10T01:06:18.116Z,100.00
2023-08-10T01:08:52.842Z,100.00
2023-08-10T01:11:26.122Z,100.00
2023-08-10T01:14:00.038Z,100.00
2023-08-10T01:16:30.588Z,100.00
2023-08-10T01:18:59.666Z,100.00
2023-08-10T01:21:31.640Z,100.00
2023-08-10T01:24:02.245Z,100.00
2023-08-10T01:26:31.893Z,100.00
2023-08-10T01:28:59.976Z,100.00
2023-08-10T01:31:28.055Z,100.00
2023-08-10T01:33:56.454Z,100.00
2023-08-10T01:36:24.436Z,100.00
2023-08-10T01:38:52.575Z,100.00
2023-08-10T01:41:20.389Z,100.00
2023-08-10T01:43:49.763Z,100.00
2023-08-10T01:46:20.309Z,100.00
2023-08-10T01:48:51.018Z,100.00
2023-08-10T01:51:21.821Z,100.00
2023-08-10T01:53:50.937Z,100.00
2023-08-10T01:56:19.745Z,100.00
2023-08-10T01:58:49.624Z,100.00
2023-08-10T02:01:17.774Z,100.00
2023-08-10T02:03:46.071Z,100.00
2023-08-10T02:06:14.102Z,100.00
2023-08-10T02:08:44.117Z,100.00
2023-08-10T02:11:12.373Z,100.00
2023-08-10T02:13:40.339Z,100.00
2023-08-10T02:16:10.633Z,100.00
2023-08-10T02:18:41.099Z,100.00
2023-08-10T02:21:08.912Z,100.00
2023-08-10T02:23:37.393Z,100.00
2023-08-10T02:26:05.281Z,100.00
2023-08-10T02:28:33.963Z,100.00
2023-08-10T02:31:01.991Z,100.00
2023-08-10T02:33:33.119Z,100.00
2023-08-10T02:36:01.373Z,100.00
2023-08-10T02:38:29.318Z,100.00
2023-08-10T02:40:57.364Z,100.00
2023-08-10T02:43:25.420Z,100.00
2023-08-10T02:45:53.598Z,100.00
2023-08-10T02:48:22.193Z,100.00
2023-08-10T02:50:51.614Z,100.00
2023-08-10T02:53:19.558Z,100.00
2023-08-10T02:55:47.491Z,100.00
2023-08-10T02:58:15.942Z,100.00
2023-08-10T03:00:43.896Z,100.00
2023-08-10T03:03:12.051Z,100.00
2023-08-10T03:05:39.998Z,100.00
2023-08-10T03:08:09.649Z,100.00
2023-08-10T03:10:38.026Z,100.00
2023-08-10T03:13:07.226Z,100.00
2023-08-10T03:15:35.448Z,100.00
2023-08-10T03:18:03.842Z,100.00
2023-08-10T03:20:32.435Z,100.00
2023-08-10T03:23:00.671Z,100.00
2023-08-10T03:25:30.908Z,100.00
2023-08-10T03:27:58.903Z,100.00
2023-08-10T03:30:26.944Z,100.00
2023-08-10T03:32:54.910Z,100.00
2023-08-10T03:35:24.028Z,100.00
2023-08-10T03:37:55.234Z,100.00
2023-08-10T03:40:23.459Z,100.00
2023-08-10T03:42:53.238Z,100.00
2023-08-10T03:45:21.175Z,100.00
2023-08-10T03:47:49.110Z,100.00
2023-08-10T03:50:17.059Z,100.00
2023-08-10T03:52:45.031Z,100.00
2023-08-10T03:55:13.199Z,100.00
2023-08-10T03:57:41.334Z,100.00
2023-08-10T04:00:11.711Z,100.00
2023-08-10T04:02:46.126Z,100.00
2023-08-10T04:05:21.474Z,100.00
2023-08-10T04:07:50.289Z,100.00
2023-08-10T04:10:18.288Z,100.00
2023-08-10T04:12:46.898Z,100.00
2023-08-10T04:15:16.533Z,100.00
2023-08-10T04:17:44.516Z,100.00
2023-08-10T04:20:15.345Z,100.00
2023-08-10T04:22:43.425Z,100.00
2023-08-10T04:25:11.267Z,100.00
2023-08-10T04:27:38.993Z,100.00
2023-08-10T04:30:10.213Z,100.00
2023-08-10T04:32:39.943Z,100.00
2023-08-10T04:35:08.355Z,100.00
2023-08-10T04:37:36.495Z,100.00
2023-08-10T04:40:08.610Z,100.00
2023-08-10T04:42:39.332Z,100.00
2023-08-10T04:45:07.724Z,100.00
2023-08-10T04:47:36.084Z,100.00
2023-08-10T04:50:06.516Z,100.00
2023-08-10T04:52:34.581Z,100.00
2023-08-10T04:55:02.501Z,100.00
2023-08-10T04:57:30.602Z,100.00
2023-08-10T04:59:58.746Z,100.00
2023-08-10T05:02:26.763Z,100.00
2023-08-10T05:04:55.185Z,100.00
2023-08-10T05:07:24.725Z,100.00
2023-08-10T05:09:56.335Z,100.00
2023-08-10T05:12:25.446Z,100.00
2023-08-10T05:14:53.767Z,100.00
2023-08-10T05:17:22.177Z,100.00
2023-08-10T05:19:50.529Z,100.00
2023-08-10T05:22:18.456Z,100.00
2023-08-10T05:24:47.824Z,100.00
2023-08-10T05:27:15.711Z,100.00
2023-08-10T05:29:43.696Z,100.00
2023-08-10T05:32:12.013Z,100.00
2023-08-10T05:34:40.181Z,100.00
2023-08-10T05:37:08.340Z,100.00
2023-08-10T05:39:36.168Z,100.00
2023-08-10T05:42:05.803Z,100.00
2023-08-10T05:44:34.013Z,100.00
2023-08-10T05:47:01.867Z,100.00
2023-08-10T05:49:29.902Z,100.00
2023-08-10T05:51:57.912Z,100.00
2023-08-10T05:54:25.748Z,100.00
2023-08-10T05:56:53.822Z,100.00
2023-08-10T05:59:23.457Z,100.00
2023-08-10T06:01:51.426Z,100.00
2023-08-10T06:04:19.693Z,100.00
2023-08-10T06:06:48.370Z,100.00
2023-08-10T06:09:17.434Z,100.00
2023-08-10T06:11:48.373Z,100.00
2023-08-10T06:14:17.364Z,100.00
2023-08-10T06:16:48.079Z,100.00
2023-08-10T06:19:16.276Z,100.00
2023-08-10T06:21:44.339Z,100.00
2023-08-10T06:24:12.541Z,100.00
2023-08-10T06:26:40.458Z,100.00
2023-08-10T06:29:08.842Z,100.00
2023-08-10T06:31:37.184Z,100.00
2023-08-10T06:34:06.420Z,100.00
2023-08-10T06:36:34.871Z,100.00
2023-08-10T06:39:03.921Z,100.00
2023-08-10T06:41:31.950Z,100.00
2023-08-10T06:44:00.160Z,100.00
2023-08-10T06:46:28.101Z,100.00
2023-08-10T06:48:56.921Z,100.00
2023-08-10T06:51:26.655Z,100.00
2023-08-10T06:53:55.042Z,100.00
2023-08-10T06:56:23.090Z,100.00
2023-08-10T07:01:21.988Z,100.00
2023-08-10T07:03:50.097Z,100.00
2023-08-10T07:06:19.222Z,99.28
2023-08-10T07:08:49.144Z,93.95
2023-08-10T07:11:17.373Z,89.07
2023-08-10T07:13:45.499Z,78.62
2023-08-10T07:16:13.712Z,74.34
2023-08-10T07:18:41.813Z,70.73
2023-08-10T07:21:10.868Z,77.95
2023-08-10T07:23:38.794Z,76.70
2023-08-10T07:26:08.720Z,73.79
2023-08-10T07:28:36.702Z,75.74
2023-08-10T07:31:04.755Z,80.29
2023-08-10T07:33:32.720Z,77.85
2023-08-10T07:36:01.447Z,74.79
2023-08-10T07:38:29.696Z,73.00
2023-08-10T07:40:57.751Z,73.51
2023-08-10T07:43:27.163Z,69.58
2023-08-10T07:45:55.425Z,67.55
2023-08-10T07:48:23.300Z,69.96
2023-08-10T07:50:51.609Z,64.98
2023-08-10T07:53:19.638Z,65.98
2023-08-10T07:55:47.525Z,66.00
2023-08-10T07:58:16.703Z,66.74
2023-08-10T08:00:46.223Z,68.45
2023-08-10T08:03:14.358Z,69.93
2023-08-10T08:05:42.471Z,62.35
2023-08-10T08:08:10.343Z,59.81
2023-08-10T08:10:38.794Z,79.11
2023-08-10T08:13:07.739Z,88.09
2023-08-10T08:15:36.105Z,100.00
2023-08-10T08:18:23.218Z,94.14
2023-08-10T08:20:52.883Z,74.85
2023-08-10T08:23:20.865Z,71.19
2023-08-10T08:25:49.194Z,75.97
2023-08-10T08:28:17.208Z,67.98
2023-08-10T08:30:45.203Z,53.63
2023-08-10T08:33:14.433Z,46.87
2023-08-10T08:35:45.333Z,46.83
2023-08-10T08:38:15.488Z,48.37
2023-08-10T08:40:44.188Z,61.79
2023-08-10T08:43:12.932Z,66.37
2023-08-10T08:45:41.426Z,53.99
2023-08-10T08:48:10.836Z,49.62
2023-08-10T08:50:39.177Z,44.65
2023-08-10T08:53:07.921Z,42.68
2023-08-10T08:55:37.954Z,56.93
2023-08-10T08:58:06.651Z,52.30
2023-08-10T09:00:34.805Z,58.46
2023-08-10T09:03:03.570Z,69.11
2023-08-10T09:05:32.181Z,67.15
2023-08-10T09:08:01.052Z,63.06
2023-08-10T09:10:30.548Z,64.04
2023-08-10T09:13:11.473Z,58.36
2023-08-10T09:15:39.752Z,56.75
2023-08-10T09:18:08.244Z,54.58
2023-08-10T09:20:39.136Z,51.24
2023-08-10T09:23:07.764Z,55.28
2023-08-10T09:25:36.831Z,59.13
2023-08-10T09:28:10.666Z,48.23
2023-08-10T09:30:38.997Z,47.04
2023-08-10T09:33:07.466Z,48.01
2023-08-10T09:35:36.175Z,48.35
2023-08-10T09:38:05.240Z,48.34
2023-08-10T09:40:33.934Z,48.29
2023-08-10T09:43:02.284Z,50.54
2023-08-10T09:45:32.016Z,48.03
2023-08-10T09:48:00.581Z,50.02
2023-08-10T09:50:29.213Z,46.79
2023-08-10T09:52:56.904Z,48.22
2023-08-10T09:55:25.000Z,46.85
2023-08-10T09:57:53.564Z,43.05
2023-08-10T10:00:24.493Z,46.67
2023-08-10T10:02:54.166Z,42.33
2023-08-10T10:05:35.779Z,36.93
2023-08-10T10:08:07.526Z,36.20
2023-08-10T10:10:37.681Z,33.85
2023-08-10T10:13:07.474Z,33.66
2023-08-10T10:15:37.215Z,42.63
2023-08-10T10:18:10.050Z,42.63
2023-08-10T10:20:40.214Z,36.70
2023-08-10T10:23:14.971Z,30.16
2023-08-10T10:25:44.428Z,30.96
2023-08-10T10:28:15.281Z,30.27
2023-08-10T10:30:54.538Z,25.26
2023-08-10T10:33:24.723Z,25.63
2023-08-10T10:36:23.122Z,24.31
2023-08-10T10:38:55.922Z,23.63
2023-08-10T10:41:31.153Z,21.65
2023-08-10T10:44:00.225Z,20.73
2023-08-10T10:46:39.914Z,20.06
2023-08-10T10:49:13.575Z,32.76
2023-08-10T10:51:51.762Z,36.67
2023-08-10T10:54:20.038Z,34.36
2023-08-10T10:56:49.070Z,32.60
2023-08-10T10:59:17.385Z,33.66
2023-08-10T11:01:47.808Z,29.81
2023-08-10T11:04:17.332Z,27.44
2023-08-10T11:06:45.632Z,29.20
2023-08-10T11:09:14.936Z,34.05
2023-08-10T11:11:47.580Z,45.59
2023-08-10T11:14:17.228Z,52.38
2023-08-10T11:16:46.083Z,46.67
2023-08-10T11:19:15.389Z,40.39
2023-08-10T11:21:49.843Z,36.25
2023-08-10T11:24:18.297Z,34.23
2023-08-10T11:26:46.277Z,37.34
2023-08-10T11:29:14.226Z,32.52
2023-08-10T11:31:46.698Z,27.35
2023-08-10T11:34:20.912Z,23.61
2023-08-10T11:36:51.032Z,21.64
2023-08-10T11:39:19.803Z,19.88
2023-08-10T11:41:49.115Z,28.71
2023-08-10T11:44:24.498Z,35.56
2023-08-10T11:46:52.837Z,28.38
2023-08-10T11:49:21.148Z,34.17
2023-08-10T11:51:52.071Z,40.67
2023-08-10T11:54:20.454Z,32.66
2023-08-10T11:56:48.238Z,26.94
2023-08-10T11:59:16.693Z,22.95
2023-08-10T12:01:48.419Z,20.46
2023-08-10T12:04:20.635Z,17.15
2023-08-10T12:06:50.382Z,18.34
2023-08-10T12:09:18.763Z,26.26
2023-08-10T12:11:49.663Z,33.78
2023-08-10T12:14:20.145Z,30.16
2023-08-10T12:16:48.268Z,26.60
2023-08-10T12:19:16.938Z,25.24
2023-08-10T12:21:47.318Z,22.95
2023-08-10T12:24:16.745Z,25.09
2023-08-10T12:26:47.648Z,23.84
2023-08-10T12:29:16.769Z,23.49
2023-08-10T12:31:45.058Z,20.37
2023-08-10T12:34:13.118Z,17.66
2023-08-10T12:36:41.702Z,21.80
2023-08-10T12:39:09.724Z,24.00
2023-08-10T12:41:39.427Z,25.38
2023-08-10T12:44:07.650Z,25.62
2023-08-10T12:46:36.207Z,23.89
2023-08-10T12:49:05.070Z,21.09
2023-08-10T12:51:33.027Z,19.72
2023-08-10T12:54:00.908Z,16.58
2023-08-10T12:56:29.029Z,16.08
2023-08-10T12:58:59.829Z,14.88
2023-08-10T13:01:27.993Z,24.63
2023-08-10T13:03:56.106Z,28.27
2023-08-10T13:06:24.438Z,21.55
2023-08-10T13:08:53.036Z,18.78
2023-08-10T13:11:21.109Z,16.48
2023-08-10T13:13:49.165Z,15.88
2023-08-10T13:16:19.188Z,19.05
2023-08-10T13:18:47.603Z,20.60
2023-08-10T13:21:16.031Z,19.96
2023-08-10T13:23:43.845Z,17.88
2023-08-10T13:26:12.139Z,23.61
2023-08-10T13:28:40.040Z,21.75
2023-08-10T13:31:08.705Z,21.55
2023-08-10T13:33:38.806Z,19.61
2023-08-10T13:36:06.830Z,19.10
2023-08-10T13:38:35.067Z,16.74
2023-08-10T13:41:03.370Z,17.92
2023-08-10T13:43:32.247Z,16.54
2023-08-10T13:46:02.304Z,14.50
2023-08-10T13:48:30.428Z,22.00
2023-08-10T13:50:59.714Z,23.03
2023-08-10T13:53:27.434Z,20.38
2023-08-10T13:55:55.486Z,28.03
2023-08-10T13:58:23.733Z,27.56
2023-08-10T14:00:51.639Z,20.87
2023-08-10T14:03:20.250Z,17.74
2023-08-10T14:05:48.878Z,16.17
2023-08-10T14:08:18.462Z,17.03
2023-08-10T14:10:46.420Z,16.77
2023-08-10T14:13:14.749Z,17.10
2023-08-10T14:15:44.952Z,16.40
2023-08-10T14:18:13.085Z,15.98
2023-08-10T14:20:41.175Z,15.68
2023-08-10T14:23:09.862Z,15.01
2023-08-10T14:25:39.001Z,15.52
2023-08-10T14:28:07.481Z,15.66
2023-08-10T14:30:35.493Z,16.04
2023-08-10T14:33:04.037Z,16.49
2023-08-10T14:35:32.117Z,14.91
2023-08-10T14:38:02.168Z,14.45
2023-08-10T14:40:30.945Z,15.42
2023-08-10T14:43:00.981Z,16.75
2023-08-10T14:45:29.622Z,17.05
2023-08-10T14:47:59.484Z,18.99
2023-08-10T14:50:28.065Z,18.44
2023-08-10T14:52:56.923Z,18.40
2023-08-10T14:55:25.236Z,16.87
2023-08-10T14:57:53.403Z,16.12
2023-08-10T15:00:24.979Z,14.71
2023-08-10T15:02:53.283Z,13.42
2023-08-10T15:05:21.891Z,14.17
2023-08-10T15:07:49.715Z,14.34
2023-08-10T15:10:19.193Z,14.35
2023-08-10T15:12:47.899Z,14.78
2023-08-10T15:15:16.769Z,14.95
2023-08-10T15:17:46.085Z,13.72
2023-08-10T15:20:14.795Z,13.69
2023-08-10T15:22:43.684Z,14.12
2023-08-10T15:25:11.982Z,14.87
2023-08-10T15:27:40.755Z,15.78
2023-08-10T15:30:09.424Z,16.00
2023-08-10T15:32:37.827Z,15.79
2023-08-10T15:35:07.968Z,15.41
2023-08-10T15:37:36.279Z,16.52
2023-08-10T15:40:05.348Z,17.42
2023-08-10T15:42:33.046Z,18.79
2023-08-10T15:45:01.160Z,19.08
2023-08-10T15:47:28.872Z,18.70
2023-08-10T15:49:56.977Z,19.28
2023-08-10T15:52:26.263Z,18.54
2023-08-10T15:54:54.294Z,18.80
2023-08-10T15:57:22.095Z,17.26
2023-08-10T15:59:50.333Z,17.29
2023-08-10T16:02:21.038Z,18.29
2023-08-10T16:04:49.759Z,19.48
2023-08-10T16:07:19.902Z,18.96
2023-08-10T16:09:49.279Z,18.46
2023-08-10T16:12:16.911Z,17.32
2023-08-10T16:14:44.853Z,17.44
2023-08-10T16:17:12.541Z,18.37
2023-08-10T16:19:40.381Z,17.74
2023-08-10T16:22:08.557Z,18.23
2023-08-10T16:24:36.888Z,17.53
2023-08-10T16:27:06.613Z,17.87
2023-08-10T16:29:35.139Z,18.30
2023-08-10T16:32:03.293Z,18.55
2023-08-10T16:34:31.117Z,18.82
2023-08-10T16:36:58.853Z,19.65
2023-08-10T16:39:27.076Z,20.23
2023-08-10T16:41:55.032Z,20.86
2023-08-10T16:44:24.400Z,20.04
2023-08-10T16:46:52.386Z,19.83
2023-08-10T16:49:20.592Z,19.54
2023-08-10T16:52:00.375Z,19.37
2023-08-10T16:54:28.380Z,20.35
2023-08-10T16:56:57.089Z,20.82
2023-08-10T16:59:26.102Z,20.80
2023-08-10T17:01:56.536Z,20.41
2023-08-10T17:04:24.821Z,20.42
2023-08-10T17:06:52.517Z,21.16
2023-08-10T17:09:20.623Z,21.33
2023-08-10T17:11:48.677Z,25.18
2023-08-10T17:14:16.684Z,25.86
2023-08-10T17:16:45.957Z,25.17
2023-08-10T17:19:13.990Z,25.62
2023-08-10T17:21:41.704Z,25.23
2023-08-10T17:24:09.584Z,24.53
2023-08-10T17:26:37.480Z,24.57
2023-08-10T17:29:19.499Z,24.18
2023-08-10T17:31:50.577Z,23.75
2023-08-10T17:34:18.590Z,24.10
2023-08-10T17:36:46.535Z,25.28
2023-08-10T17:39:14.303Z,25.93
2023-08-10T17:41:45.745Z,26.58
2023-08-10T17:44:13.933Z,26.43
2023-08-10T17:46:42.243Z,26.46
2023-08-10T17:49:11.557Z,26.94
2023-08-10T17:51:39.311Z,27.61
2023-08-10T17:54:07.854Z,25.89
2023-08-10T17:56:35.655Z,25.94
2023-08-10T17:59:03.379Z,26.79
2023-08-10T18:01:31.759Z,26.54
2023-08-10T18:04:00.212Z,27.44
2023-08-10T18:06:30.003Z,28.33
2023-08-10T18:08:58.239Z,29.56
2023-08-10T18:11:25.988Z,30.67
2023-08-10T18:13:53.943Z,32.22
2023-08-10T18:16:25.745Z,32.40
2023-08-10T18:18:54.107Z,33.95
2023-08-10T18:21:21.797Z,33.96
2023-08-10T18:23:51.335Z,34.72
2023-08-10T18:26:19.120Z,36.29
2023-08-10T18:28:47.533Z,38.25
2023-08-10T18:31:15.659Z,39.34
2023-08-10T18:33:43.420Z,41.66
2023-08-10T18:36:12.425Z,42.65
2023-08-10T18:38:40.353Z,44.57
2023-08-10T18:41:13.054Z,46.32
2023-08-10T18:43:41.429Z,48.65
2023-08-10T18:46:10.839Z,51.24
2023-08-10T18:48:38.860Z,54.70
2023-08-10T18:51:06.796Z,58.17
2023-08-10T18:53:34.927Z,61.11
2023-08-10T18:56:02.967Z,63.00
2023-08-10T18:58:32.460Z,66.27
2023-08-10T19:01:00.206Z,68.74
2023-08-10T19:03:29.318Z,71.43
2023-08-10T19:05:57.171Z,77.37
2023-08-10T19:08:25.305Z,78.56
2023-08-10T19:10:53.923Z,79.21
2023-08-10T19:13:22.029Z,81.67
2023-08-10T19:15:59.787Z,85.67
2023-08-10T19:18:28.100Z,91.18
2023-08-10T19:20:56.215Z,94.01
2023-08-10T19:23:24.222Z,100.00
2023-08-10T19:25:52.438Z,100.00
2023-08-10T19:28:20.685Z,100.00
2023-08-10T19:30:48.921Z,100.00
2023-08-10T19:33:18.137Z,100.00
2023-08-10T19:35:46.789Z,100.00
2023-08-10T19:38:14.392Z,100.00
2023-08-10T19:40:42.253Z,100.00
2023-08-10T19:43:10.317Z,100.00
2023-08-10T19:45:39.078Z,100.00
2023-08-10T19:48:07.375Z,100.00
2023-08-10T19:50:36.944Z,100.00
2023-08-10T19:53:06.242Z,100.00
2023-08-10T19:55:34.539Z,100.00
2023-08-10T19:58:03.341Z,100.00
2023-08-10T20:00:33.987Z,100.00
2023-08-10T20:03:03.070Z,100.00
2023-08-10T20:05:31.200Z,100.00
2023-08-10T20:08:01.406Z,100.00
2023-08-10T20:10:30.752Z,100.00
2023-08-10T20:12:58.999Z,100.00
2023-08-10T20:15:27.874Z,100.00
2023-08-10T20:17:57.204Z,100.00
2023-08-10T20:20:26.154Z,100.00
2023-08-10T20:22:55.765Z,100.00
2023-08-10T20:25:25.391Z,100.00
2023-08-10T20:27:53.237Z,100.00
2023-08-10T20:30:21.173Z,100.00
2023-08-10T20:32:49.128Z,100.00
2023-08-10T20:35:17.372Z,100.00
2023-08-10T20:37:45.045Z,100.00
2023-08-10T20:40:13.181Z,100.00
2023-08-10T20:42:42.716Z,100.00
2023-08-10T20:45:11.145Z,100.00
2023-08-10T20:47:38.954Z,100.00
2023-08-10T20:50:09.640Z,100.00
2023-08-10T20:52:38.852Z,100.00
2023-08-10T20:55:08.337Z,100.00
2023-08-10T20:57:36.555Z,100.00
2023-08-10T21:00:06.888Z,100.00
2023-08-10T21:02:34.918Z,100.00
2023-08-10T21:05:03.859Z,100.00
2023-08-10T21:07:33.889Z,100.00
2023-08-10T21:10:01.856Z,100.00
2023-08-10T21:12:29.762Z,100.00
2023-08-10T21:14:57.551Z,100.00
2023-08-10T21:17:27.281Z,100.00
2023-08-10T21:19:55.181Z,100.00
2023-08-10T21:22:23.035Z,100.00
2023-08-10T21:24:50.780Z,100.00
2023-08-10T21:27:18.636Z,100.00
2023-08-10T21:29:46.624Z,100.00
2023-08-10T21:32:15.156Z,100.00
2023-08-10T21:34:44.643Z,100.00
2023-08-10T21:37:12.537Z,100.00
2023-08-10T21:39:40.452Z,100.00
2023-08-10T21:42:08.578Z,100.00
2023-08-10T21:44:36.311Z,100.00
2023-08-10T21:47:05.080Z,100.00
2023-08-10T21:49:33.648Z,100.00
2023-08-10T21:52:02.907Z,100.00
2023-08-10T21:54:30.740Z,100.00
2023-08-10T21:57:00.546Z,100.00
2023-08-10T21:59:32.134Z,100.00
2023-08-10T22:02:00.107Z,100.00
2023-08-10T22:04:28.101Z,100.00
2023-08-10T22:06:56.009Z,100.00
2023-08-10T22:09:25.601Z,100.00
2023-08-10T22:11:53.630Z,100.00
2023-08-10T22:14:21.793Z,100.00
2023-08-10T22:16:49.888Z,100.00
2023-08-10T22:19:17.712Z,100.00
2023-08-10T22:21:45.263Z,100.00
2023-08-10T22:24:13.184Z,100.00
2023-08-10T22:26:42.676Z,100.00
2023-08-10T22:29:11.141Z,100.00
2023-08-10T22:31:39.483Z,100.00
2023-08-10T22:34:07.451Z,100.00
2023-08-10T22:36:35.287Z,100.00
2023-08-10T22:39:03.152Z,100.00
2023-08-10T22:41:31.083Z,100.00
2023-08-10T22:44:00.247Z,100.00
2023-08-10T22:46:28.202Z,100.00
2023-08-10T22:48:56.253Z,100.00
2023-08-10T22:51:23.969Z,100.00
2023-08-10T22:53:52.056Z,100.00
2023-08-10T22:56:20.422Z,100.00
2023-08-10T22:58:48.536Z,100.00
2023-08-10T23:01:18.304Z,100.00
2023-08-10T23:03:46.234Z,100.00
2023-08-10T23:06:15.020Z,100.00
2023-08-10T23:08:43.323Z,100.00
2023-08-10T23:11:11.339Z,100.00
2023-08-10T23:13:39.516Z,100.00
2023-08-10T23:16:08.535Z,100.00
2023-08-10T23:18:38.677Z,100.00
2023-08-10T23:21:06.852Z,100.00
2023-08-10T23:23:34.805Z,100.00
2023-08-10T23:26:03.064Z,100.00
2023-08-10T23:28:31.011Z,100.00
2023-08-10T23:30:59.034Z,100.00
2023-08-10T23:33:27.236Z,100.00
2023-08-10T23:35:56.561Z,100.00
2023-08-10T23:38:25.377Z,100.00
2023-08-10T23:40:53.524Z,100.00
2023-08-10T23:43:21.473Z,100.00
2023-08-10T23:45:49.381Z,100.00
2023-08-10T23:48:17.377Z,100.00
2023-08-10T23:50:45.860Z,100.00
2023-08-10T23:53:15.530Z,100.00
2023-08-10T23:55:44.053Z,100.00
2023-08-10T23:58:12.987Z,100.00
